createdAt,value
2022-12-17T00:02:03.206Z,96.90
2022-12-17T00:05:24.215Z,96.90
2022-12-17T00:08:44.924Z,96.90
2022-12-17T00:12:05.594Z,96.90
2022-12-17T00:15:26.848Z,96.90
2022-12-17T00:18:47.465Z,96.90
2022-12-17T00:22:08.127Z,96.90
2022-12-17T00:25:28.976Z,96.90
2022-12-17T00:28:49.830Z,96.90
2022-12-17T00:32:10.379Z,96.90
2022-12-17T00:35:31.376Z,96.80
2022-12-17T00:38:52.029Z,96.90
2022-12-17T00:42:13.530Z,96.80
2022-12-17T00:45:36.058Z,96.80
2022-12-17T00:48:56.928Z,96.80
2022-12-17T00:52:17.600Z,96.80
2022-12-17T00:55:38.173Z,96.80
2022-12-17T00:58:58.988Z,96.80
2022-12-17T01:02:21.312Z,96.80
2022-12-17T01:05:42.185Z,96.80
2022-12-17T01:09:03.002Z,96.80
2022-12-17T01:12:23.959Z,96.80
2022-12-17T01:15:44.439Z,96.80
2022-12-17T01:19:05.084Z,96.80
2022-12-17T01:22:25.935Z,96.80
2022-12-17T01:25:46.845Z,96.70
2022-12-17T01:29:07.432Z,96.70
2022-12-17T01:32:28.166Z,96.70
2022-12-17T01:35:48.861Z,96.70
2022-12-17T01:39:09.373Z,96.70
2022-12-17T01:42:32.802Z,96.70
2022-12-17T01:45:58.015Z,96.70
2022-12-17T01:49:18.514Z,96.70
2022-12-17T01:52:39.419Z,96.60
2022-12-17T01:56:00.689Z,96.60
2022-12-17T01:59:25.246Z,96.60
2022-12-17T02:02:46.164Z,96.60
2022-12-17T02:06:11.790Z,96.60
2022-12-17T02:09:45.558Z,96.60
2022-12-17T02:13:10.344Z,96.90
2022-12-17T02:16:40.371Z,96.60
2022-12-17T02:20:01.018Z,96.60
2022-12-17T02:24:15.491Z,96.60
2022-12-17T02:27:41.152Z,96.60
2022-12-17T02:31:02.971Z,96.60
2022-12-17T02:34:24.202Z,96.50
2022-12-17T02:37:44.929Z,96.50
2022-12-17T02:41:08.069Z,96.50
2022-12-17T02:44:35.854Z,96.50
2022-12-17T02:48:04.815Z,96.50
2022-12-17T02:51:25.432Z,96.50
2022-12-17T02:54:50.848Z,96.50
2022-12-17T02:58:11.838Z,96.50
2022-12-17T03:01:32.752Z,96.50
2022-12-17T03:04:56.214Z,96.50
2022-12-17T03:08:16.719Z,96.60
2022-12-17T03:11:37.296Z,96.50
2022-12-17T03:14:58.259Z,96.60
2022-12-17T03:18:19.645Z,96.50
2022-12-17T03:21:40.383Z,96.50
2022-12-17T03:25:01.130Z,96.50
2022-12-17T03:28:26.710Z,96.50
2022-12-17T03:31:47.418Z,96.50
2022-12-17T03:35:08.139Z,96.50
2022-12-17T03:38:30.096Z,96.50
2022-12-17T03:41:50.857Z,96.50
2022-12-17T03:45:11.434Z,96.50
2022-12-17T03:48:33.596Z,96.50
2022-12-17T03:51:54.529Z,96.50
2022-12-17T03:55:15.218Z,96.50
2022-12-17T03:58:36.074Z,96.50
2022-12-17T04:01:56.951Z,96.50
2022-12-17T04:05:20.358Z,96.50
2022-12-17T04:08:41.303Z,96.50
2022-12-17T04:12:02.147Z,96.50
2022-12-17T04:15:23.533Z,96.50
2022-12-17T04:18:44.109Z,96.80
2022-12-17T04:22:04.804Z,96.50
2022-12-17T04:25:26.859Z,96.40
2022-12-17T04:28:47.663Z,96.40
2022-12-17T04:32:08.422Z,96.40
2022-12-17T04:35:29.046Z,96.40
2022-12-17T04:38:49.957Z,96.50
2022-12-17T04:42:10.471Z,96.40
2022-12-17T04:45:31.173Z,96.40
2022-12-17T04:48:51.912Z,96.40
2022-12-17T04:52:12.583Z,96.40
2022-12-17T04:55:33.213Z,96.30
2022-12-17T04:58:55.891Z,96.30
2022-12-17T05:02:16.630Z,96.40
2022-12-17T05:05:37.552Z,96.30
2022-12-17T05:08:58.666Z,96.30
2022-12-17T05:12:19.362Z,96.30
2022-12-17T05:15:40.312Z,96.40
2022-12-17T05:19:01.803Z,96.30
2022-12-17T05:22:22.397Z,96.30
2022-12-17T05:25:43.267Z,96.30
2022-12-17T05:29:04.153Z,96.30
2022-12-17T05:32:24.896Z,96.30
2022-12-17T05:35:45.845Z,96.30
2022-12-17T05:39:07.945Z,96.20
2022-12-17T05:42:28.833Z,96.20
2022-12-17T05:45:49.537Z,96.20
2022-12-17T05:49:10.153Z,96.20
2022-12-17T05:52:31.091Z,96.20
2022-12-17T05:55:51.628Z,96.20
2022-12-17T05:59:12.053Z,96.20
2022-12-17T06:02:32.796Z,96.10
2022-12-17T06:05:53.714Z,96.10
2022-12-17T06:09:14.512Z,96.10
2022-12-17T06:12:35.111Z,96.10
2022-12-17T06:15:55.708Z,96.10
2022-12-17T06:19:16.700Z,96.10
2022-12-17T06:22:37.519Z,96.10
2022-12-17T06:25:58.162Z,96.10
2022-12-17T06:29:18.962Z,96.40
2022-12-17T06:32:39.668Z,96.00
2022-12-17T06:36:00.567Z,96.10
2022-12-17T06:39:21.663Z,96.00
2022-12-17T06:42:42.601Z,96.10
2022-12-17T06:46:03.188Z,96.00
2022-12-17T06:49:23.965Z,96.00
2022-12-17T06:52:45.330Z,96.00
2022-12-17T06:56:06.047Z,96.00
2022-12-17T06:59:26.788Z,96.00
2022-12-17T07:02:47.390Z,96.00
2022-12-17T07:06:08.423Z,96.00
2022-12-17T07:09:29.101Z,95.90
2022-12-17T07:12:49.867Z,95.90
2022-12-17T07:16:11.519Z,95.90
2022-12-17T07:19:32.415Z,95.90
2022-12-17T07:22:53.022Z,95.90
2022-12-17T07:26:16.062Z,95.90
2022-12-17T07:29:36.883Z,95.90
2022-12-17T07:32:57.517Z,95.80
2022-12-17T07:36:18.372Z,95.80
2022-12-17T07:39:38.967Z,95.80
2022-12-17T07:43:00.196Z,95.80
2022-12-17T07:46:21.151Z,95.80
2022-12-17T07:49:41.761Z,95.80
2022-12-17T07:53:02.484Z,95.70
2022-12-17T07:56:23.606Z,95.70
2022-12-17T07:59:44.475Z,95.70
2022-12-17T08:03:05.558Z,95.70
2022-12-17T08:06:26.224Z,95.70
2022-12-17T08:09:46.985Z,95.70
2022-12-17T08:13:33.944Z,95.70
2022-12-17T08:16:54.835Z,95.70
2022-12-17T08:20:16.292Z,95.70
2022-12-17T08:23:37.306Z,95.70
2022-12-17T08:26:58.207Z,95.60
2022-12-17T08:30:18.832Z,95.70
2022-12-17T08:33:39.553Z,95.70
2022-12-17T08:37:00.346Z,95.70
2022-12-17T08:40:21.091Z,95.60
2022-12-17T08:43:41.855Z,95.60
2022-12-17T08:47:02.404Z,95.60
2022-12-17T08:50:24.462Z,95.60
2022-12-17T08:53:45.077Z,95.60
2022-12-17T08:57:05.689Z,95.60
2022-12-17T09:00:27.302Z,95.60
2022-12-17T09:03:48.586Z,95.60
2022-12-17T09:07:09.613Z,95.60
2022-12-17T09:10:30.283Z,95.60
2022-12-17T09:13:51.009Z,95.60
2022-12-17T09:17:11.621Z,95.60
2022-12-17T09:20:32.677Z,95.60
2022-12-17T09:23:53.320Z,95.60
2022-12-17T09:27:13.871Z,95.60
2022-12-17T09:30:34.733Z,95.60
2022-12-17T09:33:56.017Z,95.60
2022-12-17T09:37:16.813Z,95.60
2022-12-17T09:40:41.754Z,95.70
2022-12-17T09:44:22.950Z,95.70
2022-12-17T09:47:58.939Z,95.60
2022-12-17T09:51:20.250Z,95.70
2022-12-17T09:55:01.883Z,95.70
2022-12-17T09:58:23.637Z,95.70
2022-12-17T10:01:47.757Z,95.80
2022-12-17T10:05:08.825Z,95.70
2022-12-17T10:08:37.878Z,95.70
2022-12-17T10:11:59.556Z,95.80
2022-12-17T10:15:20.156Z,95.80
2022-12-17T10:18:40.807Z,95.80
2022-12-17T10:22:01.414Z,95.80
2022-12-17T10:25:36.175Z,95.80
2022-12-17T10:28:56.815Z,95.80
2022-12-17T10:32:27.652Z,95.80
2022-12-17T10:35:56.344Z,95.80
2022-12-17T10:39:17.240Z,95.80
2022-12-17T10:42:56.680Z,95.80
2022-12-17T10:46:17.960Z,95.80
2022-12-17T10:49:41.661Z,95.80
2022-12-17T10:53:04.593Z,95.80
2022-12-17T10:56:25.936Z,95.90
2022-12-17T10:59:55.250Z,95.90
2022-12-17T11:03:16.491Z,95.90
2022-12-17T11:06:50.752Z,95.90
2022-12-17T11:10:15.739Z,95.90
2022-12-17T11:13:46.131Z,95.90
2022-12-17T11:17:11.497Z,95.90
2022-12-17T11:20:48.043Z,95.90
2022-12-17T11:24:10.354Z,95.90
2022-12-17T11:27:38.353Z,95.90
2022-12-17T11:31:13.934Z,95.90
2022-12-17T11:34:50.629Z,96.00
2022-12-17T11:38:17.460Z,96.00
2022-12-17T11:41:41.412Z,96.00
2022-12-17T11:45:36.914Z,96.00
2022-12-17T11:49:08.872Z,96.00
2022-12-17T11:52:34.017Z,96.00
2022-12-17T11:56:16.767Z,96.00
2022-12-17T12:00:02.259Z,96.00
2022-12-17T12:03:53.190Z,96.00
2022-12-17T12:07:33.754Z,96.00
2022-12-17T12:11:03.243Z,96.00
2022-12-17T12:14:43.131Z,96.00
2022-12-17T12:18:12.697Z,96.10
2022-12-17T12:21:41.497Z,96.10
2022-12-17T12:25:26.071Z,96.10
2022-12-17T12:29:02.709Z,96.10
2022-12-17T12:32:48.197Z,96.10
2022-12-17T12:36:11.773Z,96.10
2022-12-17T12:39:38.170Z,96.10
2022-12-17T12:43:06.607Z,96.20
2022-12-17T12:46:35.322Z,96.20
2022-12-17T12:50:20.663Z,96.20
2022-12-17T12:53:41.661Z,96.20
2022-12-17T12:57:02.669Z,96.20
2022-12-17T13:00:24.005Z,96.20
2022-12-17T13:03:46.754Z,96.20
2022-12-17T13:06:54.749Z,96.20
2022-12-17T13:09:58.751Z,96.20
2022-12-17T13:13:17.034Z,96.30
2022-12-17T13:16:22.161Z,96.20
2022-12-17T13:19:42.276Z,96.20
2022-12-17T13:22:51.404Z,96.30
2022-12-17T13:26:31.193Z,96.30
2022-12-17T13:29:37.774Z,96.20
2022-12-17T13:32:54.886Z,96.20
2022-12-17T13:36:16.896Z,96.30
2022-12-17T13:39:38.576Z,96.30
2022-12-17T13:42:40.801Z,96.30
2022-12-17T13:45:44.081Z,96.30
2022-12-17T13:48:57.990Z,96.30
2022-12-17T13:52:11.589Z,96.20
2022-12-17T13:55:27.065Z,96.30
2022-12-17T13:58:32.418Z,96.30
2022-12-17T14:01:44.947Z,96.30
2022-12-17T14:04:53.298Z,96.30
2022-12-17T14:08:00.435Z,96.30
2022-12-17T14:11:21.636Z,96.30
2022-12-17T14:14:33.489Z,96.30
2022-12-17T14:17:38.483Z,96.20
2022-12-17T14:20:42.309Z,96.20
2022-12-17T14:23:47.924Z,96.20
2022-12-17T14:26:53.096Z,96.30
2022-12-17T14:29:56.988Z,96.20
2022-12-17T14:32:59.879Z,96.20
2022-12-17T14:36:19.671Z,96.30
2022-12-17T14:39:24.624Z,96.20
2022-12-17T14:42:29.492Z,96.20
2022-12-17T14:45:31.891Z,96.20
2022-12-17T14:48:53.345Z,96.20
2022-12-17T14:51:55.543Z,96.20
2022-12-17T14:54:57.884Z,96.20
2022-12-17T14:58:11.869Z,96.20
2022-12-17T15:01:14.445Z,96.20
2022-12-17T15:04:17.223Z,96.50
2022-12-17T15:07:28.955Z,96.20
2022-12-17T15:10:31.162Z,96.20
2022-12-17T15:13:33.810Z,96.20
2022-12-17T15:16:35.935Z,96.20
2022-12-17T15:19:38.110Z,96.20
2022-12-17T15:22:40.269Z,96.20
2022-12-17T15:25:46.708Z,96.20
2022-12-17T15:28:49.302Z,96.20
2022-12-17T15:31:51.442Z,96.20
2022-12-17T15:34:53.742Z,96.20
2022-12-17T15:37:55.969Z,96.20
2022-12-17T15:41:22.136Z,96.20
2022-12-17T15:44:24.332Z,96.20
2022-12-17T15:47:26.618Z,96.20
2022-12-17T15:50:29.188Z,96.10
2022-12-17T15:53:31.388Z,96.10
2022-12-17T15:56:34.914Z,96.10
2022-12-17T15:59:37.215Z,96.10
2022-12-17T16:02:39.722Z,96.10
2022-12-17T16:05:41.980Z,96.10
2022-12-17T16:08:46.247Z,96.10
2022-12-17T16:11:56.940Z,96.10
2022-12-17T16:14:59.116Z,96.00
2022-12-17T16:18:04.144Z,96.00
2022-12-17T16:21:08.861Z,96.00
2022-12-17T16:24:11.290Z,96.00
2022-12-17T16:27:18.321Z,96.30
2022-12-17T16:30:21.108Z,96.00
2022-12-17T16:33:23.288Z,96.00
2022-12-17T16:36:28.076Z,96.00
2022-12-17T16:39:30.352Z,96.00
2022-12-17T16:42:35.160Z,95.90
2022-12-17T16:45:47.597Z,95.90
2022-12-17T16:48:49.836Z,95.90
2022-12-17T16:51:52.975Z,95.90
2022-12-17T16:54:55.212Z,95.90
2022-12-17T16:57:57.488Z,96.10
2022-12-17T17:00:59.871Z,95.80
2022-12-17T17:04:02.145Z,95.80
2022-12-17T17:07:07.768Z,95.80
2022-12-17T17:10:10.065Z,95.70
2022-12-17T17:13:13.038Z,95.70
2022-12-17T17:16:15.343Z,95.70
2022-12-17T17:19:18.569Z,95.70
2022-12-17T17:22:20.791Z,95.60
2022-12-17T17:25:23.087Z,95.60
2022-12-17T17:28:25.360Z,95.60
2022-12-17T17:32:01.290Z,95.60
2022-12-17T17:34:50.929Z,95.50
2022-12-17T17:37:53.158Z,95.50
2022-12-17T17:40:58.279Z,95.40
2022-12-17T17:44:06.269Z,95.20
2022-12-17T17:47:08.486Z,95.20
2022-12-17T17:50:10.726Z,95.20
2022-12-17T17:53:13.489Z,95.10
2022-12-17T17:56:18.901Z,95.10
2022-12-17T17:59:26.311Z,95.10
2022-12-17T18:02:33.400Z,95.10
2022-12-17T18:05:41.641Z,95.10
2022-12-17T18:08:44.786Z,95.10
2022-12-17T18:11:47.205Z,95.10
2022-12-17T18:15:12.565Z,95.10
2022-12-17T18:18:14.711Z,95.00
2022-12-17T18:21:19.359Z,95.00
2022-12-17T18:24:23.299Z,95.00
2022-12-17T18:27:25.473Z,95.00
2022-12-17T18:30:27.711Z,95.00
2022-12-17T18:33:33.162Z,94.90
2022-12-17T18:36:38.938Z,94.90
2022-12-17T18:39:41.249Z,94.90
2022-12-17T18:43:02.498Z,94.90
2022-12-17T18:46:04.707Z,94.90
2022-12-17T18:49:13.470Z,94.90
2022-12-17T18:52:17.316Z,94.80
2022-12-17T18:55:19.723Z,94.80
2022-12-17T18:58:22.043Z,94.80
2022-12-17T19:01:27.334Z,94.70
2022-12-17T19:04:29.613Z,94.80
2022-12-17T19:07:31.822Z,94.70
2022-12-17T19:10:35.259Z,94.70
2022-12-17T19:13:37.670Z,94.70
2022-12-17T19:16:39.965Z,94.70
2022-12-17T19:19:42.321Z,94.70
2022-12-17T19:22:44.557Z,94.70
2022-12-17T19:25:46.692Z,94.60
2022-12-17T19:28:52.197Z,94.60
2022-12-17T19:31:54.521Z,94.60
2022-12-17T19:34:56.843Z,94.60
2022-12-17T19:37:59.007Z,94.60
2022-12-17T19:41:10.271Z,94.60
2022-12-17T19:44:14.641Z,94.60
2022-12-17T19:47:16.898Z,94.50
2022-12-17T19:50:19.124Z,94.50
2022-12-17T19:53:23.324Z,94.50
2022-12-17T19:56:31.371Z,94.50
2022-12-17T19:59:33.652Z,94.50
2022-12-17T20:02:35.903Z,94.50
2022-12-17T20:05:38.142Z,94.50
2022-12-17T20:08:40.814Z,94.40
2022-12-17T20:11:43.748Z,94.40
2022-12-17T20:14:45.966Z,94.40
2022-12-17T20:17:48.095Z,94.40
2022-12-17T20:20:50.236Z,94.40
2022-12-17T20:23:52.578Z,94.30
2022-12-17T20:26:55.179Z,94.30
2022-12-17T20:29:57.765Z,94.30
2022-12-17T20:32:59.849Z,94.30
2022-12-17T20:36:06.806Z,94.30
2022-12-17T20:39:09.740Z,94.30
2022-12-17T20:42:11.990Z,94.30
2022-12-17T20:45:14.113Z,94.20
2022-12-17T20:48:17.002Z,94.20
2022-12-17T20:51:22.692Z,94.20
2022-12-17T20:54:24.868Z,94.20
2022-12-17T20:57:27.034Z,94.10
2022-12-17T21:00:29.255Z,94.10
2022-12-17T21:03:32.583Z,94.10
2022-12-17T21:06:40.906Z,94.10
2022-12-17T21:09:43.348Z,94.10
2022-12-17T21:13:04.357Z,94.00
2022-12-17T21:16:11.267Z,94.00
2022-12-17T21:19:16.015Z,94.00
2022-12-17T21:22:18.580Z,94.00
2022-12-17T21:25:20.821Z,94.00
2022-12-17T21:28:26.184Z,93.90
2022-12-17T21:31:38.274Z,93.90
2022-12-17T21:34:40.533Z,93.90
2022-12-17T21:37:42.883Z,93.90
2022-12-17T21:40:45.219Z,93.90
2022-12-17T21:43:47.596Z,93.80
2022-12-17T21:46:50.261Z,93.80
2022-12-17T21:49:52.775Z,93.80
2022-12-17T21:52:54.943Z,93.80
2022-12-17T21:56:17.597Z,93.80
2022-12-17T21:59:24.054Z,93.80
2022-12-17T22:02:32.802Z,93.70
2022-12-17T22:05:37.673Z,93.70
2022-12-17T22:08:42.067Z,93.70
2022-12-17T22:11:44.532Z,93.70
2022-12-17T22:14:47.442Z,93.70
2022-12-17T22:17:49.622Z,93.70
2022-12-17T22:21:00.004Z,93.60
2022-12-17T22:24:02.667Z,93.60
2022-12-17T22:27:04.946Z,93.60
2022-12-17T22:30:35.496Z,93.60
2022-12-17T22:33:58.637Z,93.60
2022-12-17T22:40:30.846Z,93.60
2022-12-17T22:44:26.736Z,93.60
2022-12-17T22:44:33.847Z,93.60
2022-12-17T22:47:07.360Z,93.60
2022-12-17T22:50:09.984Z,93.60
2022-12-17T22:53:18.889Z,93.60
2022-12-17T22:56:32.129Z,93.60
2022-12-17T22:59:44.154Z,93.60
2022-12-17T23:02:47.127Z,93.60
2022-12-17T23:05:49.377Z,93.60
2022-12-17T23:08:51.696Z,93.60
2022-12-17T23:11:53.971Z,93.60
2022-12-17T23:14:56.282Z,93.60
2022-12-17T23:18:01.521Z,93.60
2022-12-17T23:21:11.126Z,93.60
2022-12-17T23:24:13.384Z,93.60
2022-12-17T23:27:15.595Z,93.60
2022-12-17T23:30:18.679Z,93.50
2022-12-17T23:33:20.871Z,93.60
2022-12-17T23:36:24.781Z,93.60
2022-12-17T23:39:27.066Z,93.50
2022-12-17T23:42:29.416Z,93.50
2022-12-17T23:45:31.606Z,93.50
2022-12-17T23:48:40.714Z,93.60
2022-12-17T23:51:45.730Z,93.50
2022-12-17T23:54:47.868Z,93.50
2022-12-17T23:57:50.060Z,93.50
